createdAt,value
2023-04-23T04:15:18.377Z,31.00
2023-04-23T04:16:18.405Z,33.50
2023-04-23T04:17:18.357Z,32.60
2023-04-23T04:18:18.329Z,33.80
2023-04-23T04:19:18.605Z,32.20
2023-04-23T04:20:18.324Z,33.80
2023-04-23T04:21:18.287Z,34.40
2023-04-23T04:22:18.283Z,34.30
2023-04-23T04:23:18.264Z,32.90
2023-04-23T04:24:18.256Z,35.20
2023-04-23T04:25:18.249Z,33.60
2023-04-23T04:26:18.230Z,34.60
2023-04-23T04:27:18.213Z,34.10
2023-04-23T04:28:18.197Z,32.80
2023-04-23T04:29:18.187Z,33.40
2023-04-23T04:30:18.180Z,34.30
2023-04-23T04:31:18.165Z,33.60
2023-04-23T04:32:18.199Z,35.80
2023-04-23T04:33:18.135Z,34.10
2023-04-23T04:34:18.120Z,34.40
2023-04-23T04:35:18.117Z,33.60
2023-04-23T04:36:18.092Z,34.30
2023-04-23T04:37:18.078Z,33.30
2023-04-23T04:38:18.077Z,34.90
2023-04-23T04:39:18.088Z,34.70
2023-04-23T04:40:18.057Z,35.10
2023-04-23T04:41:18.020Z,35.10
2023-04-23T04:42:18.038Z,33.80
2023-04-23T04:43:17.994Z,35.00
2023-04-23T04:44:17.987Z,34.20
2023-04-23T04:45:17.980Z,35.20
2023-04-23T04:46:17.994Z,35.30
2023-04-23T04:47:17.940Z,33.80
2023-04-23T04:48:17.930Z,35.40
2023-04-23T04:49:17.915Z,33.90
2023-04-23T04:50:17.912Z,35.60
2023-04-23T04:51:17.906Z,35.20
2023-04-23T04:52:17.886Z,35.10
2023-04-23T04:53:17.861Z,34.70
2023-04-23T04:54:17.850Z,35.60
2023-04-23T04:55:17.842Z,35.20
2023-04-23T04:56:17.830Z,35.20
2023-04-23T04:57:17.810Z,35.70
2023-04-23T04:58:17.802Z,36.00
2023-04-23T04:59:17.780Z,35.40
2023-04-23T05:00:17.775Z,35.40
2023-04-23T05:01:17.796Z,33.80
2023-04-23T05:02:17.835Z,35.30
2023-04-23T05:03:17.885Z,34.70
2023-04-23T05:04:17.874Z,36.40
2023-04-23T05:05:17.715Z,34.80
2023-04-23T05:06:17.705Z,34.40
2023-04-23T05:07:17.671Z,35.20
2023-04-23T05:08:17.664Z,35.80
2023-04-23T05:09:17.653Z,34.00
2023-04-23T05:10:17.644Z,33.70
2023-04-23T05:11:17.648Z,34.50
2023-04-23T05:12:17.617Z,34.90
2023-04-23T05:13:17.595Z,34.40
2023-04-23T05:14:17.606Z,34.70
2023-04-23T05:15:17.571Z,35.30
2023-04-23T05:16:17.607Z,34.40
2023-04-23T05:17:17.715Z,33.50
2023-04-23T05:18:17.528Z,34.70
2023-04-23T05:19:17.551Z,35.20
2023-04-23T05:20:17.512Z,35.00
2023-04-23T05:21:17.500Z,33.10
2023-04-23T05:22:17.488Z,33.40
2023-04-23T05:23:17.466Z,33.40
2023-04-23T05:24:17.461Z,34.10
2023-04-23T05:25:17.444Z,35.10
2023-04-23T05:26:17.437Z,33.10
2023-04-23T05:27:17.412Z,34.10
2023-04-23T05:28:17.458Z,33.50
2023-04-23T05:29:17.391Z,33.80
2023-04-23T05:30:17.374Z,35.40
2023-04-23T05:31:17.386Z,34.10
2023-04-23T05:32:24.517Z,35.70
2023-04-23T05:33:17.349Z,31.30
2023-04-23T05:34:17.356Z,31.90
2023-04-23T05:35:17.305Z,32.00
2023-04-23T05:36:17.332Z,31.80
2023-04-23T05:37:17.319Z,32.10
2023-04-23T05:38:17.280Z,33.30
2023-04-23T05:39:17.271Z,31.10
2023-04-23T05:40:17.250Z,32.80
2023-04-23T05:41:17.240Z,31.40
2023-04-23T05:42:17.222Z,32.90
2023-04-23T05:43:17.211Z,30.60
2023-04-23T05:44:17.194Z,30.50
2023-04-23T05:45:17.167Z,30.90
2023-04-23T05:46:17.280Z,30.40
2023-04-23T05:47:17.146Z,30.50
2023-04-23T05:48:17.138Z,28.40
2023-04-23T05:49:17.120Z,29.50
2023-04-23T05:50:17.119Z,28.40
2023-04-23T05:51:17.132Z,28.30
2023-04-23T05:52:17.083Z,28.90
2023-04-23T05:53:17.072Z,27.00
2023-04-23T05:54:17.073Z,28.20
2023-04-23T05:55:17.046Z,27.30
2023-04-23T05:56:17.054Z,28.00
2023-04-23T05:57:17.019Z,27.40
2023-04-23T05:58:17.035Z,25.90
2023-04-23T05:59:16.984Z,28.10
2023-04-23T06:00:17.007Z,24.60
2023-04-23T06:01:16.978Z,24.50
2023-04-23T06:02:17.022Z,23.30
2023-04-23T06:03:17.172Z,24.70
2023-04-23T06:04:17.137Z,24.00
2023-04-23T06:05:16.993Z,23.80
2023-04-23T06:06:16.898Z,23.40
2023-04-23T06:07:16.877Z,24.30
2023-04-23T06:08:16.868Z,23.20
2023-04-23T06:09:16.849Z,22.60
2023-04-23T06:10:16.849Z,23.00
2023-04-23T06:11:16.831Z,20.90
2023-04-23T06:12:16.812Z,22.30
2023-04-23T06:13:16.789Z,22.20
2023-04-23T06:14:16.780Z,21.40
2023-04-23T06:15:16.762Z,23.20
2023-04-23T06:16:16.787Z,20.60
2023-04-23T06:17:16.744Z,19.70
2023-04-23T06:18:16.781Z,20.70
2023-04-23T06:19:17.009Z,20.60
2023-04-23T06:20:16.714Z,19.80
2023-04-23T06:21:18.031Z,18.30
2023-04-23T06:22:16.666Z,19.50
2023-04-23T06:23:16.670Z,20.40
2023-04-23T06:24:16.794Z,19.60
2023-04-23T06:25:16.636Z,19.00
2023-04-23T06:26:16.686Z,18.20
2023-04-23T06:27:16.597Z,20.30
2023-04-23T06:28:16.600Z,18.50
2023-04-23T06:29:16.592Z,18.40
2023-04-23T06:30:16.599Z,19.00
2023-04-23T06:31:16.596Z,17.10
2023-04-23T06:32:19.020Z,18.90
2023-04-23T06:33:16.519Z,17.00
2023-04-23T06:34:16.519Z,16.80
2023-04-23T06:35:16.500Z,17.50
2023-04-23T06:36:16.493Z,17.00
2023-04-23T06:37:16.464Z,16.40
2023-04-23T06:38:16.461Z,15.40
2023-04-23T06:39:16.452Z,16.30
2023-04-23T06:40:16.436Z,16.00
2023-04-23T06:41:16.419Z,16.50
2023-04-23T06:42:16.400Z,14.70
2023-04-23T06:43:16.402Z,16.00
2023-04-23T06:44:16.391Z,15.60
2023-04-23T06:45:16.373Z,14.00
2023-04-23T06:46:16.352Z,14.60
2023-04-23T06:47:16.329Z,14.30
2023-04-23T06:48:16.368Z,14.20
2023-04-23T06:49:16.301Z,15.50
2023-04-23T06:50:16.324Z,14.50
2023-04-23T06:51:16.292Z,13.90
2023-04-23T06:52:16.275Z,14.70
2023-04-23T06:53:16.257Z,13.90
2023-04-23T06:54:16.241Z,13.80
2023-04-23T06:55:16.240Z,14.40
2023-04-23T06:56:16.252Z,14.80
2023-04-23T06:57:16.196Z,12.40
2023-04-23T06:58:16.680Z,13.70
2023-04-23T06:59:16.163Z,14.00
2023-04-23T07:00:16.190Z,13.80
2023-04-23T07:01:16.287Z,13.60
2023-04-23T07:02:16.168Z,12.70
2023-04-23T07:03:16.195Z,14.50
2023-04-23T07:04:16.133Z,13.70
2023-04-23T07:05:16.129Z,13.30
2023-04-23T07:06:16.099Z,14.00
2023-04-23T07:07:16.079Z,13.30
2023-04-23T07:08:16.072Z,13.60
2023-04-23T07:09:16.057Z,13.40
2023-04-23T07:10:17.955Z,13.90
2023-04-23T07:11:16.040Z,13.10
2023-04-23T07:12:16.022Z,12.90
2023-04-23T07:13:16.008Z,13.10
2023-04-23T07:14:15.996Z,12.60
2023-04-23T07:15:16.026Z,12.90
2023-04-23T07:16:16.007Z,12.50
2023-04-23T07:17:15.982Z,12.80
2023-04-23T07:18:15.968Z,12.30
2023-04-23T07:19:15.938Z,12.70
2023-04-23T07:20:15.938Z,12.60
2023-04-23T07:21:15.910Z,12.60
2023-04-23T07:22:15.898Z,11.90
2023-04-23T07:23:15.873Z,11.40
2023-04-23T07:24:15.864Z,12.30
2023-04-23T07:25:15.868Z,12.40
2023-04-23T07:26:15.844Z,12.40
2023-04-23T07:27:15.826Z,11.50
2023-04-23T07:28:15.825Z,12.20
2023-04-23T07:29:15.805Z,11.50
2023-04-23T07:30:15.827Z,11.70
2023-04-23T07:31:15.789Z,12.40
2023-04-23T07:32:15.798Z,12.80
2023-04-23T07:33:15.748Z,11.50
2023-04-23T07:34:15.734Z,11.50
2023-04-23T07:35:15.723Z,11.40
2023-04-23T07:36:15.728Z,11.10
2023-04-23T07:37:15.690Z,10.80
2023-04-23T07:38:15.691Z,12.20
2023-04-23T07:39:15.669Z,12.10
2023-04-23T07:40:15.665Z,10.90
2023-04-23T07:41:15.644Z,11.10
2023-04-23T07:42:15.633Z,11.70
2023-04-23T07:43:15.640Z,11.30
2023-04-23T07:44:15.620Z,10.60
2023-04-23T07:45:15.611Z,12.00
2023-04-23T07:46:15.611Z,11.50
2023-04-23T07:47:15.579Z,11.20
2023-04-23T07:48:15.559Z,10.80
2023-04-23T07:49:15.551Z,11.40
2023-04-23T07:50:15.561Z,12.10
2023-04-23T07:51:15.509Z,11.60
2023-04-23T07:52:15.552Z,11.10
2023-04-23T07:53:15.484Z,11.20
2023-04-23T07:54:15.471Z,10.10
2023-04-23T07:55:15.526Z,11.10
2023-04-23T07:56:15.452Z,11.00
2023-04-23T07:57:15.444Z,12.20
2023-04-23T07:58:15.440Z,11.50
2023-04-23T07:59:15.410Z,10.70
2023-04-23T08:00:15.402Z,10.90
2023-04-23T08:01:15.384Z,10.60
2023-04-23T08:02:15.422Z,10.20
2023-04-23T08:03:15.448Z,10.40
2023-04-23T08:04:15.723Z,10.60
2023-04-23T08:05:15.371Z,10.40
2023-04-23T08:06:15.325Z,11.00
2023-04-23T08:07:15.308Z,10.30
2023-04-23T08:08:15.280Z,10.00
2023-04-23T08:09:15.274Z,11.00
2023-04-23T08:10:15.270Z,9.60
2023-04-23T08:11:15.251Z,9.50
2023-04-23T08:12:15.235Z,9.10
2023-04-23T08:13:15.217Z,9.20
2023-04-23T08:14:15.195Z,9.20
2023-04-23T08:15:15.209Z,8.90
2023-04-23T08:16:15.205Z,8.50
2023-04-23T08:17:15.173Z,8.40
2023-04-23T08:18:15.142Z,9.40
2023-04-23T08:19:15.151Z,8.80
2023-04-23T08:20:15.142Z,8.40
2023-04-23T08:21:15.111Z,8.20
2023-04-23T08:22:15.089Z,8.20
2023-04-23T08:23:15.085Z,7.50
2023-04-23T08:24:15.096Z,8.20
2023-04-23T08:25:15.078Z,7.30
2023-04-23T08:26:15.056Z,7.70
2023-04-23T08:27:15.029Z,7.50
2023-04-23T08:28:15.009Z,7.30
2023-04-23T08:29:15.013Z,7.30
2023-04-23T08:30:14.993Z,7.00
2023-04-23T08:31:25.533Z,6.50
2023-04-23T08:32:16.989Z,5.90
2023-04-23T08:33:14.955Z,6.20
2023-04-23T08:34:14.961Z,7.20
2023-04-23T08:35:14.936Z,6.40
2023-04-23T08:36:14.904Z,6.70
2023-04-23T08:37:27.189Z,5.80
2023-04-23T08:38:15.879Z,5.40
2023-04-23T08:39:14.879Z,5.80
2023-04-23T08:40:14.908Z,5.60
2023-04-23T08:41:14.837Z,5.30
2023-04-23T08:42:14.850Z,5.70
2023-04-23T08:43:14.823Z,6.40
2023-04-23T08:44:14.803Z,5.20
2023-04-23T08:45:14.816Z,5.40
2023-04-23T08:46:14.806Z,6.00
2023-04-23T08:47:14.767Z,5.30
2023-04-23T08:48:14.749Z,4.90
2023-04-23T08:49:14.738Z,5.70
2023-04-23T08:50:14.740Z,5.40
2023-04-23T08:51:14.702Z,5.70
2023-04-23T08:52:14.695Z,5.40
2023-04-23T08:53:14.690Z,5.30
2023-04-23T08:54:14.671Z,5.50
2023-04-23T08:55:14.668Z,5.30
2023-04-23T08:56:14.656Z,5.40
2023-04-23T08:57:14.633Z,4.60
2023-04-23T08:58:14.644Z,5.00
2023-04-23T08:59:14.605Z,5.30
2023-04-23T09:00:14.626Z,4.90
2023-04-23T09:01:14.638Z,4.80
2023-04-23T09:02:14.676Z,5.10
2023-04-23T09:03:14.635Z,4.90
2023-04-23T09:04:14.539Z,4.90
2023-04-23T09:05:14.538Z,4.70
2023-04-23T09:06:14.515Z,4.60
2023-04-23T09:07:14.496Z,4.60
2023-04-23T09:08:14.498Z,5.10
2023-04-23T09:09:14.467Z,4.40
2023-04-23T09:10:17.734Z,4.60
2023-04-23T09:11:14.449Z,4.70
2023-04-23T09:12:14.439Z,4.10
2023-04-23T09:13:14.420Z,4.00
2023-04-23T09:14:14.404Z,4.50
2023-04-23T09:15:14.404Z,4.70
2023-04-23T09:16:14.413Z,4.20
2023-04-23T09:17:14.360Z,4.10
2023-04-23T09:18:14.357Z,4.00
2023-04-23T09:19:14.340Z,4.30
2023-04-23T09:20:14.356Z,4.00
2023-04-23T09:21:14.319Z,4.00
2023-04-23T09:22:14.308Z,3.90
2023-04-23T09:23:14.280Z,3.70
2023-04-23T09:24:14.269Z,3.90
2023-04-23T09:25:14.267Z,4.10
2023-04-23T09:26:14.266Z,3.90
2023-04-23T09:27:14.237Z,3.70
2023-04-23T09:28:14.217Z,3.90
2023-04-23T09:29:14.201Z,3.90
2023-04-23T09:30:14.206Z,3.50
2023-04-23T09:31:14.185Z,3.70
2023-04-23T09:32:14.263Z,3.40
2023-04-23T09:33:14.160Z,3.60
2023-04-23T09:34:14.150Z,3.50
2023-04-23T09:35:14.140Z,4.00
2023-04-23T09:36:14.133Z,3.70
2023-04-23T09:37:14.120Z,3.40
2023-04-23T09:38:14.100Z,3.30
2023-04-23T09:39:14.084Z,3.20
2023-04-23T09:40:14.087Z,3.10
2023-04-23T09:41:14.050Z,3.30
2023-04-23T09:42:14.037Z,3.20
2023-04-23T09:43:14.019Z,3.40
2023-04-23T09:44:14.016Z,3.20
2023-04-23T09:45:14.007Z,3.10
2023-04-23T09:46:14.021Z,2.90
2023-04-23T09:47:13.960Z,3.10
2023-04-23T09:48:13.967Z,3.10
2023-04-23T09:49:13.935Z,3.20
2023-04-23T09:50:13.948Z,3.00
2023-04-23T09:51:13.915Z,3.10
2023-04-23T09:52:13.906Z,3.00
2023-04-23T09:53:13.882Z,2.90
2023-04-23T09:54:13.876Z,2.60
2023-04-23T09:55:13.870Z,2.80
2023-04-23T09:56:13.845Z,2.90
2023-04-23T09:57:13.836Z,3.00
2023-04-23T09:58:13.837Z,2.80
2023-04-23T09:59:13.806Z,2.90
2023-04-23T10:00:14.801Z,2.50
2023-04-23T10:01:13.807Z,2.40
2023-04-23T10:02:14.017Z,2.60
2023-04-23T10:03:13.821Z,2.40
2023-04-23T10:04:13.953Z,2.50
2023-04-23T10:05:23.021Z,2.50
2023-04-23T10:06:25.784Z,2.40
2023-04-23T10:08:13.976Z,2.20
2023-04-23T10:09:13.670Z,2.50
2023-04-23T10:10:13.668Z,2.20
2023-04-23T10:11:20.762Z,2.30
2023-04-23T10:13:13.620Z,2.30
2023-04-23T10:14:13.606Z,2.40
2023-04-23T10:15:13.580Z,2.20
2023-04-23T10:16:22.233Z,2.30
2023-04-23T10:17:14.568Z,2.10
2023-04-23T10:18:13.557Z,2.10
2023-04-23T10:19:13.534Z,2.30
2023-04-23T10:20:13.564Z,2.20
2023-04-23T10:21:13.509Z,2.00
2023-04-23T10:23:13.486Z,2.10
2023-04-23T10:24:13.472Z,1.90
2023-04-23T10:25:13.470Z,2.10
2023-04-23T10:26:13.459Z,2.10
2023-04-23T10:27:24.853Z,2.00
2023-04-23T10:28:14.424Z,2.00
2023-04-23T10:29:13.401Z,1.90
2023-04-23T10:30:13.422Z,1.90
2023-04-23T10:31:13.408Z,2.00
2023-04-23T10:32:13.396Z,1.70
2023-04-23T10:33:26.536Z,1.90
2023-04-23T10:34:14.393Z,1.90
2023-04-23T10:35:13.333Z,1.80
2023-04-23T10:36:13.314Z,1.70
2023-04-23T10:37:13.316Z,1.80
2023-04-23T10:38:13.288Z,1.60
2023-04-23T10:39:15.855Z,1.60
2023-04-23T10:40:14.536Z,1.60
2023-04-23T10:41:13.245Z,1.80
2023-04-23T10:42:13.245Z,1.70
2023-04-23T10:43:13.211Z,1.50
2023-04-23T10:44:15.934Z,1.80
2023-04-23T10:45:22.578Z,1.40
2023-04-23T10:46:14.184Z,1.50
2023-04-23T10:47:13.167Z,1.50
2023-04-23T10:48:13.155Z,1.60
2023-04-23T10:49:13.147Z,1.30
2023-04-23T10:50:13.144Z,1.50
2023-04-23T10:52:20.636Z,1.40
2023-04-23T10:53:14.100Z,1.60
2023-04-23T10:54:13.086Z,1.30
2023-04-23T10:55:13.064Z,1.20
2023-04-23T10:56:13.047Z,1.70
2023-04-23T10:57:13.048Z,1.60
2023-04-23T10:58:13.031Z,1.60
2023-04-23T10:59:13.004Z,1.20
2023-04-23T11:00:13.029Z,1.20
2023-04-23T11:01:12.983Z,1.60
2023-04-23T11:02:13.045Z,1.60
2023-04-23T11:03:13.012Z,1.30
2023-04-23T11:04:13.054Z,1.40
2023-04-23T11:05:12.936Z,1.50
2023-04-23T11:06:12.915Z,1.40
2023-04-23T11:07:12.905Z,1.50
2023-04-23T11:08:19.253Z,1.40
2023-04-23T11:09:13.867Z,1.50
2023-04-23T11:10:12.882Z,1.90
2023-04-23T11:11:12.847Z,1.50
2023-04-23T11:12:12.838Z,1.60
2023-04-23T11:13:12.819Z,1.80
2023-04-23T11:14:12.822Z,1.60
2023-04-23T11:15:12.808Z,1.40
2023-04-23T11:16:12.877Z,1.60
2023-04-23T11:17:12.773Z,1.50
2023-04-23T11:18:12.758Z,1.60
2023-04-23T11:19:13.050Z,1.60
2023-04-23T11:20:12.755Z,1.60
2023-04-23T11:21:12.720Z,1.70
2023-04-23T11:22:12.706Z,1.40
2023-04-23T11:23:12.689Z,1.30
2023-04-23T11:24:12.688Z,1.40
2023-04-23T11:25:12.670Z,1.50
2023-04-23T11:26:12.674Z,1.70
2023-04-23T11:27:12.634Z,1.70
2023-04-23T11:28:12.626Z,1.80
2023-04-23T11:29:12.613Z,1.60
2023-04-23T11:30:12.659Z,1.50
2023-04-23T11:31:12.587Z,1.70
2023-04-23T11:32:12.613Z,1.40
2023-04-23T11:33:19.711Z,1.50
2023-04-23T11:34:12.538Z,1.60
2023-04-23T11:35:13.813Z,1.40
2023-04-23T11:36:12.527Z,1.50
2023-04-23T11:37:12.538Z,1.50
2023-04-23T11:38:12.488Z,1.20
2023-04-23T11:39:12.476Z,1.30
2023-04-23T11:40:12.523Z,1.70
2023-04-23T11:41:12.474Z,1.60
2023-04-23T11:42:12.435Z,1.50
2023-04-23T11:43:12.426Z,1.60
2023-04-23T11:44:12.407Z,1.80
2023-04-23T11:45:12.421Z,1.60
2023-04-23T11:46:12.420Z,1.30
2023-04-23T11:47:12.375Z,1.80
2023-04-23T11:48:12.348Z,1.70
2023-04-23T11:49:12.344Z,1.60
2023-04-23T11:50:12.391Z,1.60
2023-04-23T11:51:12.321Z,1.70
2023-04-23T11:52:12.305Z,1.90
2023-04-23T11:53:12.300Z,1.50
2023-04-23T11:54:12.273Z,1.70
2023-04-23T11:55:12.288Z,1.60
2023-04-23T11:56:12.253Z,1.70
2023-04-23T11:57:12.253Z,1.50
2023-04-23T11:58:12.227Z,1.40
2023-04-23T11:59:12.227Z,1.60
2023-04-23T12:00:12.218Z,1.80
2023-04-23T12:01:12.188Z,1.80
2023-04-23T12:02:12.222Z,1.50
2023-04-23T12:03:12.384Z,1.60
2023-04-23T12:04:12.372Z,1.30
2023-04-23T12:05:12.175Z,1.40
2023-04-23T12:06:12.120Z,1.30
2023-04-23T12:07:25.380Z,1.70
2023-04-23T12:08:13.098Z,1.30
2023-04-23T12:09:12.079Z,1.20
2023-04-23T12:10:12.097Z,1.40
2023-04-23T12:11:12.069Z,1.30
2023-04-23T12:12:12.046Z,1.50
2023-04-23T12:13:12.031Z,1.30
2023-04-23T12:14:12.026Z,1.30
2023-04-23T12:15:12.000Z,1.30
2023-04-23T12:16:12.098Z,1.30
2023-04-23T12:17:11.983Z,1.30
2023-04-23T12:18:11.973Z,1.10
2023-04-23T12:19:11.943Z,1.20
2023-04-23T12:20:11.960Z,1.30
2023-04-23T12:21:11.939Z,1.30
2023-04-23T12:22:11.914Z,1.30
2023-04-23T12:23:11.897Z,1.10
2023-04-23T12:24:11.903Z,1.20
2023-04-23T12:25:11.875Z,1.40
2023-04-23T12:26:11.882Z,1.50
2023-04-23T12:27:11.843Z,1.40
2023-04-23T12:28:11.851Z,1.20
2023-04-23T12:29:11.817Z,1.00
2023-04-23T12:30:12.088Z,1.20
2023-04-23T12:31:11.817Z,1.20
2023-04-23T12:32:11.825Z,1.30
2023-04-23T12:33:11.769Z,1.30
2023-04-23T12:34:11.750Z,1.00
2023-04-23T12:35:11.745Z,1.20
2023-04-23T12:36:11.738Z,1.10
2023-04-23T12:37:11.707Z,1.40
2023-04-23T12:38:11.701Z,1.10
2023-04-23T12:39:11.690Z,1.10
2023-04-23T12:40:11.677Z,1.10
2023-04-23T12:41:11.676Z,1.20
2023-04-23T12:42:11.646Z,1.40
2023-04-23T12:43:11.638Z,1.20
2023-04-23T12:44:11.629Z,1.20
2023-04-23T12:45:11.610Z,1.00
2023-04-23T12:46:11.648Z,1.00
2023-04-23T12:47:11.667Z,1.10
2023-04-23T12:48:11.566Z,1.10
2023-04-23T12:49:11.557Z,1.00
2023-04-23T12:50:11.544Z,1.00
2023-04-23T12:51:11.540Z,0.80
2023-04-23T12:52:13.370Z,0.80
2023-04-23T12:53:11.498Z,0.90
2023-04-23T12:54:11.489Z,0.80
2023-04-23T12:55:11.470Z,0.70
2023-04-23T12:56:11.481Z,0.80
2023-04-23T12:57:11.484Z,0.80
2023-04-23T12:58:11.439Z,0.70
2023-04-23T12:59:11.412Z,0.90
2023-04-23T13:00:11.408Z,0.80
2023-04-23T13:01:11.489Z,0.90
2023-04-23T13:02:11.507Z,0.80
2023-04-23T13:03:11.600Z,0.90
2023-04-23T13:04:11.358Z,1.00
2023-04-23T13:05:11.362Z,1.10
2023-04-23T13:06:11.348Z,1.00
2023-04-23T13:07:11.327Z,1.10
2023-04-23T13:08:11.308Z,0.80
2023-04-23T13:09:11.337Z,0.80
2023-04-23T13:10:11.310Z,0.80
2023-04-23T13:11:11.291Z,1.00
2023-04-23T13:12:11.253Z,0.90
2023-04-23T13:13:11.232Z,0.80
2023-04-23T13:14:11.222Z,0.90
2023-04-23T13:15:11.222Z,1.20
2023-04-23T13:16:11.267Z,1.00
2023-04-23T13:17:11.182Z,0.70
2023-04-23T13:18:11.172Z,0.70
2023-04-23T13:19:11.155Z,0.90
2023-04-23T13:20:11.166Z,1.10
2023-04-23T13:21:11.128Z,0.70
2023-04-23T13:22:11.122Z,0.70
2023-04-23T13:23:11.098Z,0.90
2023-04-23T13:24:11.091Z,0.80
2023-04-23T13:25:11.088Z,0.90
2023-04-23T13:26:11.068Z,0.90
2023-04-23T13:27:11.050Z,1.00
2023-04-23T13:28:11.034Z,1.10
2023-04-23T13:29:11.017Z,0.90
2023-04-23T13:30:11.022Z,0.80
2023-04-23T13:31:10.999Z,0.80
2023-04-23T13:32:11.021Z,0.90
2023-04-23T13:33:10.967Z,0.60
2023-04-23T13:34:10.961Z,0.70
2023-04-23T13:35:10.959Z,1.10
2023-04-23T13:36:10.934Z,0.60
2023-04-23T13:37:10.920Z,1.10
2023-04-23T13:38:10.904Z,0.70
2023-04-23T13:39:10.903Z,0.70
2023-04-23T13:40:10.883Z,0.70
2023-04-23T13:41:10.864Z,0.70
2023-04-23T13:42:10.858Z,0.90
2023-04-23T13:43:10.837Z,0.70
2023-04-23T13:44:10.839Z,0.70
2023-04-23T13:45:11.350Z,0.70
2023-04-23T13:46:10.853Z,0.80
2023-04-23T13:47:10.792Z,1.30
2023-04-23T13:48:10.773Z,0.70
2023-04-23T13:49:10.776Z,0.90
2023-04-23T13:50:10.747Z,0.70
2023-04-23T13:51:25.995Z,0.80
2023-04-23T13:52:11.718Z,0.70
2023-04-23T13:53:10.705Z,0.80
2023-04-23T13:54:10.709Z,1.00
2023-04-23T13:55:10.691Z,0.90
2023-04-23T13:56:10.676Z,0.70
2023-04-23T13:57:10.654Z,0.90
2023-04-23T13:58:12.211Z,0.80
2023-04-23T13:59:18.840Z,0.80
2023-04-23T14:00:11.631Z,0.80
2023-04-23T14:01:10.634Z,0.90
2023-04-23T14:02:10.611Z,1.00
2023-04-23T14:03:10.709Z,0.80
2023-04-23T14:04:13.010Z,0.90
2023-04-23T14:05:10.566Z,1.00
2023-04-23T14:06:10.537Z,0.80
2023-04-23T14:07:10.537Z,0.90
2023-04-23T14:08:10.513Z,1.00
2023-04-23T14:09:10.516Z,0.80
2023-04-23T14:10:10.493Z,1.10
2023-04-23T14:11:10.468Z,0.80
2023-04-23T14:12:10.467Z,0.90
2023-04-23T14:13:10.445Z,0.90
2023-04-23T14:14:10.440Z,0.80
2023-04-23T14:15:10.435Z,1.00
2023-04-23T14:16:10.421Z,1.00
2023-04-23T14:17:10.387Z,0.90
2023-04-23T14:18:10.384Z,0.90
2023-04-23T14:19:10.367Z,0.80
2023-04-23T14:20:10.365Z,0.90
2023-04-23T14:21:10.334Z,1.40
2023-04-23T14:22:10.327Z,1.00
2023-04-23T14:23:10.299Z,1.10
2023-04-23T14:24:10.324Z,1.00
2023-04-23T14:25:10.289Z,0.80
2023-04-23T14:26:10.273Z,0.90
2023-04-23T14:27:10.262Z,0.80
2023-04-23T14:28:10.246Z,1.00
2023-04-23T14:29:10.231Z,1.10
2023-04-23T14:30:10.258Z,1.00
2023-04-23T14:31:10.215Z,1.00
2023-04-23T14:32:10.215Z,1.00
2023-04-23T14:33:10.217Z,0.90
2023-04-23T14:34:10.161Z,0.80
2023-04-23T14:35:10.162Z,1.00
2023-04-23T14:36:10.133Z,0.90
2023-04-23T14:37:10.127Z,1.10
2023-04-23T14:38:10.120Z,0.80
2023-04-23T14:39:10.112Z,1.10
2023-04-23T14:40:10.102Z,1.00
2023-04-23T14:41:10.086Z,1.20
2023-04-23T14:42:10.053Z,0.90
2023-04-23T14:43:15.435Z,0.90
2023-04-23T14:44:11.036Z,1.00
2023-04-23T14:45:10.043Z,1.00
2023-04-23T14:46:10.034Z,1.00
2023-04-23T14:47:09.998Z,1.10
2023-04-23T14:48:09.977Z,1.00
2023-04-23T14:49:09.985Z,0.90
2023-04-23T14:50:09.966Z,1.20
2023-04-23T14:51:09.962Z,1.20
2023-04-23T14:52:09.931Z,1.20
2023-04-23T14:53:09.925Z,0.90
2023-04-23T14:54:09.908Z,1.10
2023-04-23T14:55:09.897Z,1.00
2023-04-23T14:56:09.874Z,1.00
2023-04-23T14:57:09.862Z,1.10
2023-04-23T14:58:09.859Z,1.10
2023-04-23T14:59:09.836Z,1.10
2023-04-23T15:00:09.853Z,1.10
2023-04-23T15:01:09.809Z,1.10
2023-04-23T15:02:09.874Z,1.00
2023-04-23T15:03:09.914Z,1.10
2023-04-23T15:04:09.879Z,1.00
2023-04-23T15:05:09.782Z,1.20
2023-04-23T15:06:09.749Z,0.90
2023-04-23T15:07:09.726Z,1.10
2023-04-23T15:08:09.710Z,1.00
2023-04-23T15:09:09.727Z,0.90
2023-04-23T15:10:09.707Z,1.00
2023-04-23T15:11:09.701Z,1.00
2023-04-23T15:12:09.653Z,1.10
2023-04-23T15:13:09.688Z,1.10
2023-04-23T15:14:09.647Z,1.20
2023-04-23T15:15:09.610Z,1.00
2023-04-23T15:16:09.614Z,0.90
2023-04-23T15:17:09.624Z,0.90
2023-04-23T15:18:09.621Z,1.00
2023-04-23T15:19:09.589Z,0.90
2023-04-23T15:20:09.547Z,1.10
2023-04-23T15:21:09.543Z,0.90
2023-04-23T15:22:09.551Z,1.00
2023-04-23T15:23:09.526Z,0.90
2023-04-23T15:24:09.515Z,0.80
2023-04-23T15:25:09.493Z,1.00
2023-04-23T15:26:09.475Z,0.90
2023-04-23T15:27:09.465Z,1.10
2023-04-23T15:28:09.448Z,0.90
2023-04-23T15:29:09.454Z,0.90
2023-04-23T15:30:09.420Z,0.80
2023-04-23T15:31:09.414Z,1.10
2023-04-23T15:32:09.421Z,1.00
2023-04-23T15:33:09.387Z,1.10
2023-04-23T15:34:09.827Z,0.90
2023-04-23T15:35:09.368Z,1.00
2023-04-23T15:36:09.346Z,1.10
2023-04-23T15:37:09.341Z,0.90
2023-04-23T15:38:09.327Z,0.90
2023-04-23T15:39:09.391Z,1.00
2023-04-23T15:40:09.297Z,1.00
2023-04-23T15:41:09.299Z,0.90
2023-04-23T15:42:09.267Z,1.10
2023-04-23T15:43:09.256Z,1.00
2023-04-23T15:44:09.249Z,0.80
2023-04-23T15:45:09.224Z,0.70
2023-04-23T15:46:09.257Z,0.80
2023-04-23T15:47:09.203Z,0.80
2023-04-23T15:48:09.185Z,0.90
2023-04-23T15:49:09.217Z,0.80
2023-04-23T15:50:09.173Z,0.80
2023-04-23T15:51:09.157Z,0.70
2023-04-23T15:52:09.146Z,0.70
2023-04-23T15:53:09.138Z,0.70
2023-04-23T15:54:09.171Z,0.60
2023-04-23T15:55:09.140Z,0.80
2023-04-23T15:56:09.091Z,0.50
2023-04-23T15:57:09.089Z,0.60
2023-04-23T15:58:09.053Z,0.60
2023-04-23T15:59:09.057Z,0.70
2023-04-23T16:00:09.027Z,0.70
2023-04-23T16:01:09.024Z,1.30
2023-04-23T16:02:09.071Z,0.40
2023-04-23T16:03:09.139Z,0.50
2023-04-23T16:04:11.594Z,0.60
2023-04-23T16:05:08.956Z,0.60
2023-04-23T16:06:09.927Z,0.70
2023-04-23T16:07:08.935Z,0.80
2023-04-23T16:08:08.936Z,0.60
2023-04-23T16:09:09.122Z,0.90
2023-04-23T16:10:08.886Z,1.00
2023-04-23T16:11:08.935Z,0.60
2023-04-23T16:12:08.994Z,0.60
2023-04-23T16:13:08.852Z,0.60
2023-04-23T16:14:08.846Z,0.50
2023-04-23T16:15:08.825Z,0.60
2023-04-23T16:16:08.804Z,0.80
2023-04-23T16:17:08.842Z,0.50
2023-04-23T16:18:08.884Z,0.60
2023-04-23T16:19:08.798Z,0.70
2023-04-23T16:20:08.775Z,0.60
2023-04-23T16:21:08.744Z,0.60
2023-04-23T16:22:08.769Z,1.20
2023-04-23T16:23:08.721Z,0.80
2023-04-23T16:24:08.765Z,0.80
2023-04-23T16:25:08.691Z,0.90
2023-04-23T16:26:08.679Z,0.70
2023-04-23T16:27:08.683Z,0.80
2023-04-23T16:28:08.676Z,0.80
2023-04-23T16:29:21.479Z,0.80
2023-04-23T16:30:09.628Z,0.50
2023-04-23T16:31:08.785Z,0.60
2023-04-23T16:32:08.604Z,0.70
2023-04-23T16:33:08.615Z,0.60
2023-04-23T16:34:08.622Z,0.50
2023-04-23T16:35:08.574Z,0.60
2023-04-23T16:36:08.547Z,0.60
2023-04-23T16:37:08.541Z,0.70
2023-04-23T16:38:08.518Z,0.60
2023-04-23T16:39:08.520Z,0.60
2023-04-23T16:40:08.499Z,0.70
2023-04-23T16:41:08.473Z,0.60
2023-04-23T16:42:08.468Z,0.60
2023-04-23T16:43:08.449Z,0.50
2023-04-23T16:44:08.474Z,0.60
2023-04-23T16:45:08.426Z,0.70
2023-04-23T16:46:08.468Z,0.60
2023-04-23T16:47:08.405Z,0.90
2023-04-23T16:48:08.392Z,0.70
2023-04-23T16:49:08.383Z,0.60
2023-04-23T16:50:08.395Z,0.60
2023-04-23T16:51:08.352Z,0.70
2023-04-23T16:52:08.337Z,0.50
2023-04-23T16:53:08.504Z,0.60
2023-04-23T16:54:08.306Z,0.60
2023-04-23T16:55:08.300Z,0.70
2023-04-23T16:56:08.295Z,0.60
2023-04-23T16:57:08.270Z,0.70
2023-04-23T16:58:08.265Z,0.50
2023-04-23T16:59:08.242Z,0.70
2023-04-23T17:00:08.234Z,0.70
2023-04-23T17:01:08.277Z,0.80
2023-04-23T17:02:08.432Z,0.70
2023-04-23T17:03:08.381Z,0.70
2023-04-23T17:04:08.326Z,0.60
2023-04-23T17:05:08.183Z,0.70
2023-04-23T17:06:08.153Z,0.60
2023-04-23T17:07:08.135Z,0.70
2023-04-23T17:08:08.143Z,0.70
2023-04-23T17:09:08.104Z,0.80
2023-04-23T17:10:08.091Z,0.70
2023-04-23T17:11:08.084Z,0.80
2023-04-23T17:12:08.075Z,0.70
2023-04-23T17:13:08.067Z,0.60
2023-04-23T17:14:08.042Z,0.70
2023-04-23T17:15:08.025Z,0.60
2023-04-23T17:16:08.070Z,0.60
2023-04-23T17:17:08.010Z,0.60
2023-04-23T17:18:09.079Z,0.80
2023-04-23T17:19:07.979Z,0.80
2023-04-23T17:20:07.988Z,0.80
2023-04-23T17:21:07.948Z,0.70
2023-04-23T17:22:07.936Z,0.80
2023-04-23T17:23:07.941Z,0.70
2023-04-23T17:24:07.908Z,0.90
2023-04-23T17:25:07.904Z,0.70
2023-04-23T17:26:07.883Z,0.80
2023-04-23T17:27:07.866Z,0.90
2023-04-23T17:28:07.868Z,0.90
2023-04-23T17:29:07.844Z,1.00